<?xml version="1.0" encoding="utf-8"?>
<gpx xmlns:xsi="http://www.w3.org/2001/XMLSchema-instance" xmlns:xsd="http://www.w3.org/2001/XMLSchema" version="1.1" creator="Shapelink.com" xmlns="http://www.topografix.com/GPX/1/1" xmlns:gpxtpx="http://www.garmin.com/xmlschemas/TrackPointExtension/v1">
  <metadata>
    <name>Övrigt 6.02 km, 2019-07-20</name>
    <desc></desc>
    <author><name>Marian Moron</name></author> 
    <time>2019-07-20T16:14:03Z</time>
  </metadata>
  <trk>
    <name>Övrigt 6.02 km, 2019-07-20</name>
    <trkseg>
      <trkpt lat="51.230046317129" lon="4.458757656149">
        <ele>0</ele>
        <time>2019-07-20T16:14:03Z</time>
      </trkpt>
      <trkpt lat="51.230002395973" lon="4.458695965365">
        <ele>0</ele>
        <time>2019-07-20T16:14:13Z</time>
      </trkpt>
      <trkpt lat="51.229904746838" lon="4.457979564372">
        <ele>0</ele>
        <time>2019-07-20T16:14:46Z</time>
      </trkpt>
      <trkpt lat="51.229888402133" lon="4.457871354043">
        <ele>0</ele>
        <time>2019-07-20T16:14:52Z</time>
      </trkpt>
      <trkpt lat="51.229842134045" lon="4.457678318886">
        <ele>0</ele>
        <time>2019-07-20T16:15:05Z</time>
      </trkpt>
      <trkpt lat="51.22980651097" lon="4.45740054272">
        <ele>0</ele>
        <time>2019-07-20T16:15:19Z</time>
      </trkpt>
      <trkpt lat="51.229804080219" lon="4.456898047815">
        <ele>0.6</ele>
        <time>2019-07-20T16:15:43Z</time>
      </trkpt>
      <trkpt lat="51.229801146554" lon="4.456858401428">
        <ele>0.6</ele>
        <time>2019-07-20T16:15:45Z</time>
      </trkpt>
      <trkpt lat="51.229652200191" lon="4.45667634656">
        <ele>1</ele>
        <time>2019-07-20T16:16:03Z</time>
      </trkpt>
      <trkpt lat="51.229730906232" lon="4.456563274729">
        <ele>1.4</ele>
        <time>2019-07-20T16:16:18Z</time>
      </trkpt>
      <trkpt lat="51.229927629425" lon="4.456507618913">
        <ele>2.8</ele>
        <time>2019-07-20T16:16:38Z</time>
      </trkpt>
      <trkpt lat="51.230382179862" lon="4.456440898989">
        <ele>6.6</ele>
        <time>2019-07-20T16:17:13Z</time>
      </trkpt>
      <trkpt lat="51.230661213313" lon="4.456365797165">
        <ele>11.6</ele>
        <time>2019-07-20T16:17:34Z</time>
      </trkpt>
      <trkpt lat="51.230736985689" lon="4.456367473545">
        <ele>14.6</ele>
        <time>2019-07-20T16:17:42Z</time>
      </trkpt>
      <trkpt lat="51.230992214544" lon="4.456134624363">
        <ele>9.6</ele>
        <time>2019-07-20T16:18:16Z</time>
      </trkpt>
      <trkpt lat="51.231093719353" lon="4.455897500412">
        <ele>6.2</ele>
        <time>2019-07-20T16:18:39Z</time>
      </trkpt>
      <trkpt lat="51.231154404309" lon="4.456006465112">
        <ele>6.4</ele>
        <time>2019-07-20T16:19:17Z</time>
      </trkpt>
      <trkpt lat="51.231171503385" lon="4.456163206642">
        <ele>4.4</ele>
        <time>2019-07-20T16:19:26Z</time>
      </trkpt>
      <trkpt lat="51.231156667422" lon="4.456185670134">
        <ele>3.6</ele>
        <time>2019-07-20T16:19:28Z</time>
      </trkpt>
      <trkpt lat="51.230862462732" lon="4.45624970785">
        <ele>3.8</ele>
        <time>2019-07-20T16:20:00Z</time>
      </trkpt>
      <trkpt lat="51.231237971852" lon="4.456440060799">
        <ele>9.8</ele>
        <time>2019-07-20T16:20:34Z</time>
      </trkpt>
      <trkpt lat="51.231253310729" lon="4.457156880887">
        <ele>0.2</ele>
        <time>2019-07-20T16:21:03Z</time>
      </trkpt>
      <trkpt lat="51.231250796159" lon="4.45723709567">
        <ele>0</ele>
        <time>2019-07-20T16:21:07Z</time>
      </trkpt>
      <trkpt lat="51.231227662115" lon="4.457445134428">
        <ele>0</ele>
        <time>2019-07-20T16:21:18Z</time>
      </trkpt>
      <trkpt lat="51.231302009568" lon="4.457862301591">
        <ele>0</ele>
        <time>2019-07-20T16:21:40Z</time>
      </trkpt>
      <trkpt lat="51.231299075903" lon="4.45822532168">
        <ele>0</ele>
        <time>2019-07-20T16:22:00Z</time>
      </trkpt>
      <trkpt lat="51.231314582418" lon="4.45834266828">
        <ele>0</ele>
        <time>2019-07-20T16:22:06Z</time>
      </trkpt>
      <trkpt lat="51.23135967704" lon="4.458346523954">
        <ele>0</ele>
        <time>2019-07-20T16:22:11Z</time>
      </trkpt>
      <trkpt lat="51.23148792011" lon="4.458285503722">
        <ele>0</ele>
        <time>2019-07-20T16:22:24Z</time>
      </trkpt>
      <trkpt lat="51.231588419091" lon="4.45840637072">
        <ele>1</ele>
        <time>2019-07-20T16:22:41Z</time>
      </trkpt>
      <trkpt lat="51.231692773746" lon="4.458924791235">
        <ele>2.6</ele>
        <time>2019-07-20T16:23:09Z</time>
      </trkpt>
      <trkpt lat="51.231722361853" lon="4.459113551623">
        <ele>2.6</ele>
        <time>2019-07-20T16:23:31Z</time>
      </trkpt>
      <trkpt lat="51.23184750362" lon="4.459796508835">
        <ele>0</ele>
        <time>2019-07-20T16:24:06Z</time>
      </trkpt>
      <trkpt lat="51.231989325368" lon="4.460477286753">
        <ele>0</ele>
        <time>2019-07-20T16:24:39Z</time>
      </trkpt>
      <trkpt lat="51.232131398573" lon="4.461114311153">
        <ele>0</ele>
        <time>2019-07-20T16:25:14Z</time>
      </trkpt>
      <trkpt lat="51.232211948632" lon="4.461521503855">
        <ele>1.2</ele>
        <time>2019-07-20T16:25:38Z</time>
      </trkpt>
      <trkpt lat="51.232284787343" lon="4.462220051401">
        <ele>2</ele>
        <time>2019-07-20T16:26:12Z</time>
      </trkpt>
      <trkpt lat="51.232278668556" lon="4.462234216812">
        <ele>2</ele>
        <time>2019-07-20T16:26:13Z</time>
      </trkpt>
      <trkpt lat="51.232263748774" lon="4.462265146023">
        <ele>2.8</ele>
        <time>2019-07-20T16:26:15Z</time>
      </trkpt>
      <trkpt lat="51.232174062444" lon="4.462321137115">
        <ele>2</ele>
        <time>2019-07-20T16:26:22Z</time>
      </trkpt>
      <trkpt lat="51.232159058843" lon="4.462557674333">
        <ele>4.6</ele>
        <time>2019-07-20T16:26:37Z</time>
      </trkpt>
      <trkpt lat="51.232141959767" lon="4.463182461159">
        <ele>7</ele>
        <time>2019-07-20T16:27:10Z</time>
      </trkpt>
      <trkpt lat="51.23191791158" lon="4.463630641352">
        <ele>4.6</ele>
        <time>2019-07-20T16:27:36Z</time>
      </trkpt>
      <trkpt lat="51.231772988529" lon="4.463557132089">
        <ele>2.8</ele>
        <time>2019-07-20T16:27:51Z</time>
      </trkpt>
      <trkpt lat="51.231543324469" lon="4.463410616477">
        <ele>0.2</ele>
        <time>2019-07-20T16:28:07Z</time>
      </trkpt>
      <trkpt lat="51.23149294925" lon="4.463359822163">
        <ele>0</ele>
        <time>2019-07-20T16:28:15Z</time>
      </trkpt>
      <trkpt lat="51.231331262399" lon="4.463210540524">
        <ele>3.2</ele>
        <time>2019-07-20T16:28:29Z</time>
      </trkpt>
      <trkpt lat="51.231260686801" lon="4.46323099236">
        <ele>4</ele>
        <time>2019-07-20T16:28:41Z</time>
      </trkpt>
      <trkpt lat="51.231130934989" lon="4.463265106693">
        <ele>5.8</ele>
        <time>2019-07-20T16:29:00Z</time>
      </trkpt>
      <trkpt lat="51.230691220515" lon="4.463451687787">
        <ele>8.4</ele>
        <time>2019-07-20T16:29:40Z</time>
      </trkpt>
      <trkpt lat="51.230369439374" lon="4.463818060636">
        <ele>13</ele>
        <time>2019-07-20T16:30:21Z</time>
      </trkpt>
      <trkpt lat="51.230215128595" lon="4.464048562886">
        <ele>5.6</ele>
        <time>2019-07-20T16:30:40Z</time>
      </trkpt>
      <trkpt lat="51.230077581616" lon="4.464205388235">
        <ele>4.4</ele>
        <time>2019-07-20T16:31:07Z</time>
      </trkpt>
      <trkpt lat="51.230077497797" lon="4.46423262941">
        <ele>6.4</ele>
        <time>2019-07-20T16:31:49Z</time>
      </trkpt>
      <trkpt lat="51.23005712978" lon="4.464203628036">
        <ele>8.8</ele>
        <time>2019-07-20T16:33:23Z</time>
      </trkpt>
      <trkpt lat="51.230021506705" lon="4.464212429031">
        <ele>9.2</ele>
        <time>2019-07-20T16:33:28Z</time>
      </trkpt>
      <trkpt lat="51.229719842124" lon="4.464207986624">
        <ele>20.4</ele>
        <time>2019-07-20T16:33:57Z</time>
      </trkpt>
      <trkpt lat="51.229274930872" lon="4.464376546633">
        <ele>1.4</ele>
        <time>2019-07-20T16:34:41Z</time>
      </trkpt>
      <trkpt lat="51.229107292872" lon="4.464097345544">
        <ele>0.2</ele>
        <time>2019-07-20T16:36:33Z</time>
      </trkpt>
      <trkpt lat="51.229092708366" lon="4.46415132498">
        <ele>0</ele>
        <time>2019-07-20T16:36:37Z</time>
      </trkpt>
      <trkpt lat="51.229052559065" lon="4.464180158716">
        <ele>0.4</ele>
        <time>2019-07-20T16:36:42Z</time>
      </trkpt>
      <trkpt lat="51.229003357312" lon="4.464189127349">
        <ele>0.6</ele>
        <time>2019-07-20T16:36:48Z</time>
      </trkpt>
      <trkpt lat="51.228964549115" lon="4.464151408799">
        <ele>0</ele>
        <time>2019-07-20T16:37:17Z</time>
      </trkpt>
      <trkpt lat="51.228969410617" lon="4.464161047984">
        <ele>0.8</ele>
        <time>2019-07-20T16:37:42Z</time>
      </trkpt>
      <trkpt lat="51.228990365367" lon="4.464245453717">
        <ele>2</ele>
        <time>2019-07-20T16:37:57Z</time>
      </trkpt>
      <trkpt lat="51.228984330399" lon="4.464276131471">
        <ele>2.2</ele>
        <time>2019-07-20T16:37:59Z</time>
      </trkpt>
      <trkpt lat="51.228973685386" lon="4.464373193873">
        <ele>2.2</ele>
        <time>2019-07-20T16:38:04Z</time>
      </trkpt>
      <trkpt lat="51.228943762003" lon="4.464395657365">
        <ele>1.8</ele>
        <time>2019-07-20T16:38:11Z</time>
      </trkpt>
      <trkpt lat="51.228707057147" lon="4.464576454948">
        <ele>0</ele>
        <time>2019-07-20T16:38:47Z</time>
      </trkpt>
      <trkpt lat="51.228700603084" lon="4.464622220122">
        <ele>0</ele>
        <time>2019-07-20T16:38:50Z</time>
      </trkpt>
      <trkpt lat="51.2286975856" lon="4.46465172441">
        <ele>0</ele>
        <time>2019-07-20T16:38:52Z</time>
      </trkpt>
      <trkpt lat="51.228730610286" lon="4.465285060774">
        <ele>0</ele>
        <time>2019-07-20T16:39:30Z</time>
      </trkpt>
      <trkpt lat="51.228683671646" lon="4.465357899485">
        <ele>0</ele>
        <time>2019-07-20T16:39:36Z</time>
      </trkpt>
      <trkpt lat="51.228625333622" lon="4.465724859067">
        <ele>0</ele>
        <time>2019-07-20T16:39:59Z</time>
      </trkpt>
      <trkpt lat="51.228281759541" lon="4.466176308201">
        <ele>0</ele>
        <time>2019-07-20T16:40:36Z</time>
      </trkpt>
      <trkpt lat="51.228214369065" lon="4.466258786097">
        <ele>0</ele>
        <time>2019-07-20T16:40:44Z</time>
      </trkpt>
      <trkpt lat="51.228171369918" lon="4.466307568755">
        <ele>0</ele>
        <time>2019-07-20T16:40:50Z</time>
      </trkpt>
      <trkpt lat="51.227870794984" lon="4.466706463376">
        <ele>0</ele>
        <time>2019-07-20T16:41:26Z</time>
      </trkpt>
      <trkpt lat="51.22772863796" lon="4.46699278908">
        <ele>0</ele>
        <time>2019-07-20T16:42:02Z</time>
      </trkpt>
      <trkpt lat="51.227357235971" lon="4.46673546475">
        <ele>0</ele>
        <time>2019-07-20T16:42:41Z</time>
      </trkpt>
      <trkpt lat="51.227343322017" lon="4.466711492516">
        <ele>0</ele>
        <time>2019-07-20T16:42:43Z</time>
      </trkpt>
      <trkpt lat="51.227275428627" lon="4.466639408176">
        <ele>0</ele>
        <time>2019-07-20T16:42:52Z</time>
      </trkpt>
      <trkpt lat="51.226823560398" lon="4.466529605286">
        <ele>0</ele>
        <time>2019-07-20T16:43:34Z</time>
      </trkpt>
      <trkpt lat="51.22681249629" lon="4.466528264182">
        <ele>0</ele>
        <time>2019-07-20T16:43:35Z</time>
      </trkpt>
      <trkpt lat="51.226593561062" lon="4.466485516492">
        <ele>0</ele>
        <time>2019-07-20T16:43:53Z</time>
      </trkpt>
      <trkpt lat="51.226426677433" lon="4.466411420496">
        <ele>7.8</ele>
        <time>2019-07-20T16:44:12Z</time>
      </trkpt>
      <trkpt lat="51.225979503068" lon="4.466307652574">
        <ele>4.8</ele>
        <time>2019-07-20T16:44:53Z</time>
      </trkpt>
      <trkpt lat="51.22554012387" lon="4.46614956994">
        <ele>5.4</ele>
        <time>2019-07-20T16:45:31Z</time>
      </trkpt>
      <trkpt lat="51.225156903402" lon="4.465977154257">
        <ele>3.6</ele>
        <time>2019-07-20T16:46:05Z</time>
      </trkpt>
      <trkpt lat="51.225039808259" lon="4.4658930838">
        <ele>3.2</ele>
        <time>2019-07-20T16:46:20Z</time>
      </trkpt>
      <trkpt lat="51.224641332733" lon="4.465535428127">
        <ele>0</ele>
        <time>2019-07-20T16:46:57Z</time>
      </trkpt>
      <trkpt lat="51.224549634747" lon="4.465428391264">
        <ele>0</ele>
        <time>2019-07-20T16:47:10Z</time>
      </trkpt>
      <trkpt lat="51.22415711037" lon="4.465037124172">
        <ele>0</ele>
        <time>2019-07-20T16:47:45Z</time>
      </trkpt>
      <trkpt lat="51.223785876019" lon="4.4645938893">
        <ele>4.4</ele>
        <time>2019-07-20T16:48:20Z</time>
      </trkpt>
      <trkpt lat="51.223377090756" lon="4.46421502742">
        <ele>5.4</ele>
        <time>2019-07-20T16:48:53Z</time>
      </trkpt>
      <trkpt lat="51.223155640958" lon="4.46395770309">
        <ele>6.2</ele>
        <time>2019-07-20T16:49:15Z</time>
      </trkpt>
      <trkpt lat="51.223010047355" lon="4.46399961259">
        <ele>5</ele>
        <time>2019-07-20T16:49:29Z</time>
      </trkpt>
      <trkpt lat="51.222675609545" lon="4.463605830928">
        <ele>6</ele>
        <time>2019-07-20T16:50:05Z</time>
      </trkpt>
      <trkpt lat="51.222231033569" lon="4.463451184873">
        <ele>15.8</ele>
        <time>2019-07-20T16:50:37Z</time>
      </trkpt>
      <trkpt lat="51.222138832669" lon="4.463469708872">
        <ele>17.4</ele>
        <time>2019-07-20T16:50:45Z</time>
      </trkpt>
      <trkpt lat="51.221677660531" lon="4.463457638936">
        <ele>16.8</ele>
        <time>2019-07-20T16:51:24Z</time>
      </trkpt>
      <trkpt lat="51.221523768847" lon="4.463449257036">
        <ele>15</ele>
        <time>2019-07-20T16:51:40Z</time>
      </trkpt>
      <trkpt lat="51.221264684318" lon="4.46348161117">
        <ele>9.6</ele>
        <time>2019-07-20T16:52:06Z</time>
      </trkpt>
      <trkpt lat="51.220818264324" lon="4.463384632587">
        <ele>13.4</ele>
        <time>2019-07-20T16:52:42Z</time>
      </trkpt>
      <trkpt lat="51.220371173778" lon="4.463353619557">
        <ele>8.6</ele>
        <time>2019-07-20T16:53:18Z</time>
      </trkpt>
      <trkpt lat="51.220019972168" lon="4.463444060258">
        <ele>14.2</ele>
        <time>2019-07-20T16:53:56Z</time>
      </trkpt>
      <trkpt lat="51.219908492898" lon="4.463202577719">
        <ele>19.8</ele>
        <time>2019-07-20T16:54:21Z</time>
      </trkpt>
      <trkpt lat="51.219762061105" lon="4.463171899965">
        <ele>19.8</ele>
        <time>2019-07-20T16:54:44Z</time>
      </trkpt>
      <trkpt lat="51.219708333126" lon="4.463169888309">
        <ele>20</ele>
        <time>2019-07-20T16:54:48Z</time>
      </trkpt>
      <trkpt lat="51.219256045802" lon="4.463157566916">
        <ele>2</ele>
        <time>2019-07-20T16:55:32Z</time>
      </trkpt>
      <trkpt lat="51.218922110906" lon="4.463168463386">
        <ele>2.6</ele>
        <time>2019-07-20T16:56:12Z</time>
      </trkpt>
      <trkpt lat="51.218560851016" lon="4.463176090915">
        <ele>3.4</ele>
        <time>2019-07-20T16:56:51Z</time>
      </trkpt>
      <trkpt lat="51.218241249169" lon="4.463101324367">
        <ele>0</ele>
        <time>2019-07-20T16:57:34Z</time>
      </trkpt>
      <trkpt lat="51.21816656644" lon="4.463106353507">
        <ele>0</ele>
        <time>2019-07-20T16:57:41Z</time>
      </trkpt>
      <trkpt lat="51.217802121428" lon="4.463163015151">
        <ele>0</ele>
        <time>2019-07-20T16:58:29Z</time>
      </trkpt>
      <trkpt lat="51.217820561608" lon="4.463785957959">
        <ele>1.8</ele>
        <time>2019-07-20T16:59:13Z</time>
      </trkpt>
      <trkpt lat="51.217780663764" lon="4.464500514934">
        <ele>0</ele>
        <time>2019-07-20T16:59:47Z</time>
      </trkpt>
      <trkpt lat="51.217740179187" lon="4.465219011402">
        <ele>0</ele>
        <time>2019-07-20T17:00:27Z</time>
      </trkpt>
      <trkpt lat="51.217735401504" lon="4.465947733788">
        <ele>0</ele>
        <time>2019-07-20T17:01:07Z</time>
      </trkpt>
      <trkpt lat="51.217731462011" lon="4.46665416032">
        <ele>0</ele>
        <time>2019-07-20T17:01:50Z</time>
      </trkpt>
      <trkpt lat="51.217646972459" lon="4.467350360934">
        <ele>0</ele>
        <time>2019-07-20T17:02:32Z</time>
      </trkpt>
      <trkpt lat="51.217631130668" lon="4.467939524685">
        <ele>0</ele>
        <time>2019-07-20T17:03:25Z</time>
      </trkpt>
      <trkpt lat="51.217602548389" lon="4.468345963016">
        <ele>3.2</ele>
        <time>2019-07-20T17:04:01Z</time>
      </trkpt>
      <trkpt lat="51.217567931142" lon="4.468462890521">
        <ele>0</ele>
        <time>2019-07-20T17:04:13Z</time>
      </trkpt>
      <trkpt lat="51.21752786566" lon="4.468579063655">
        <ele>1.6</ele>
        <time>2019-07-20T17:04:19Z</time>
      </trkpt>
      <trkpt lat="51.217546976392" lon="4.468967229444">
        <ele>3.4</ele>
        <time>2019-07-20T17:04:40Z</time>
      </trkpt>
      <trkpt lat="51.217587544788" lon="4.469158336764">
        <ele>0</ele>
        <time>2019-07-20T17:04:54Z</time>
      </trkpt>
      <trkpt lat="51.217905973169" lon="4.468811242285">
        <ele>0.8</ele>
        <time>2019-07-20T17:05:33Z</time>
      </trkpt>
      <trkpt lat="51.217915444716" lon="4.468672270383">
        <ele>2.2</ele>
        <time>2019-07-20T17:05:40Z</time>
      </trkpt>
      <trkpt lat="51.21790337478" lon="4.468517791966">
        <ele>3.4</ele>
        <time>2019-07-20T17:05:48Z</time>
      </trkpt>
      <trkpt lat="51.217894741423" lon="4.468464902177">
        <ele>2.6</ele>
        <time>2019-07-20T17:05:51Z</time>
      </trkpt>
      <trkpt lat="51.217835313752" lon="4.468343029351">
        <ele>1.8</ele>
        <time>2019-07-20T17:06:03Z</time>
      </trkpt>
      <trkpt lat="51.217636159808" lon="4.468156280619">
        <ele>5.2</ele>
        <time>2019-07-20T17:06:29Z</time>
      </trkpt>
      <trkpt lat="51.217569607522" lon="4.467454045037">
        <ele>8.8</ele>
        <time>2019-07-20T17:07:14Z</time>
      </trkpt>
      <trkpt lat="51.217644290251" lon="4.467141483986">
        <ele>1.8</ele>
        <time>2019-07-20T17:07:45Z</time>
      </trkpt>
      <trkpt lat="51.218013010032" lon="4.467002428265">
        <ele>0</ele>
        <time>2019-07-20T17:08:34Z</time>
      </trkpt>
      <trkpt lat="51.218026504891" lon="4.466995722745">
        <ele>0</ele>
        <time>2019-07-20T17:09:00Z</time>
      </trkpt>
      <trkpt lat="51.218026756348" lon="4.466993878727">
        <ele>0</ele>
        <time>2019-07-20T17:09:03Z</time>
      </trkpt>
      <trkpt lat="51.218103199276" lon="4.467000500428">
        <ele>0</ele>
        <time>2019-07-20T17:09:13Z</time>
      </trkpt>
      <trkpt lat="51.218211158148" lon="4.467038721892">
        <ele>0</ele>
        <time>2019-07-20T17:09:26Z</time>
      </trkpt>
      <trkpt lat="51.218264047937" lon="4.467029920897">
        <ele>0</ele>
        <time>2019-07-20T17:09:30Z</time>
      </trkpt>
      <trkpt lat="51.218333198612" lon="4.466984742456">
        <ele>0</ele>
        <time>2019-07-20T17:09:36Z</time>
      </trkpt>
      <trkpt lat="51.218479295129" lon="4.466968313932">
        <ele>3.2</ele>
        <time>2019-07-20T17:09:55Z</time>
      </trkpt>
      <trkpt lat="51.218589600933" lon="4.466958088014">
        <ele>6</ele>
        <time>2019-07-20T17:10:15Z</time>
      </trkpt>
      <trkpt lat="51.218949100624" lon="4.466917687256">
        <ele>2.2</ele>
        <time>2019-07-20T17:10:58Z</time>
      </trkpt>
      <trkpt lat="51.218994865798" lon="4.466897319239">
        <ele>1</ele>
        <time>2019-07-20T17:13:44Z</time>
      </trkpt>
      <trkpt lat="51.219075918771" lon="4.466851470246">
        <ele>6</ele>
        <time>2019-07-20T17:14:34Z</time>
      </trkpt>
      <trkpt lat="51.219290914506" lon="4.466770165816">
        <ele>6</ele>
        <time>2019-07-20T17:15:25Z</time>
      </trkpt>
      <trkpt lat="51.219477076505" lon="4.46679581443">
        <ele>4.6</ele>
        <time>2019-07-20T17:15:45Z</time>
      </trkpt>
      <trkpt lat="51.219657790269" lon="4.466867479675">
        <ele>2</ele>
        <time>2019-07-20T17:16:00Z</time>
      </trkpt>
      <trkpt lat="51.219724929288" lon="4.466952807417">
        <ele>1.2</ele>
        <time>2019-07-20T17:16:09Z</time>
      </trkpt>
      <trkpt lat="51.219808245374" lon="4.466958758566">
        <ele>0</ele>
        <time>2019-07-20T17:16:20Z</time>
      </trkpt>
      <trkpt lat="51.219889633623" lon="4.466896900144">
        <ele>0</ele>
        <time>2019-07-20T17:16:33Z</time>
      </trkpt>
      <trkpt lat="51.21989156146" lon="4.466869072236">
        <ele>0</ele>
        <time>2019-07-20T17:16:35Z</time>
      </trkpt>
      <trkpt lat="51.219914527866" lon="4.466337659776">
        <ele>0</ele>
        <time>2019-07-20T17:17:15Z</time>
      </trkpt>
      <trkpt lat="51.219903799034" lon="4.46625266731">
        <ele>0</ele>
        <time>2019-07-20T17:17:20Z</time>
      </trkpt>
      <trkpt lat="51.219919054092" lon="4.46597187366">
        <ele>1.8</ele>
        <time>2019-07-20T17:17:40Z</time>
      </trkpt>
      <trkpt lat="51.219956856461" lon="4.465848911187">
        <ele>3.2</ele>
        <time>2019-07-20T17:17:50Z</time>
      </trkpt>
      <trkpt lat="51.219994072097" lon="4.465732738053">
        <ele>5.4</ele>
        <time>2019-07-20T17:18:02Z</time>
      </trkpt>
      <trkpt lat="51.220160368993" lon="4.465020192734">
        <ele>8.4</ele>
        <time>2019-07-20T17:18:41Z</time>
      </trkpt>
      <trkpt lat="51.220129439782" lon="4.464290380701">
        <ele>4.2</ele>
        <time>2019-07-20T17:19:23Z</time>
      </trkpt>
      <trkpt lat="51.220175456413" lon="4.464085191789">
        <ele>6.8</ele>
        <time>2019-07-20T17:19:33Z</time>
      </trkpt>
      <trkpt lat="51.220190460014" lon="4.463792663479">
        <ele>11.8</ele>
        <time>2019-07-20T17:19:52Z</time>
      </trkpt>
      <trkpt lat="51.220189035091" lon="4.463596862295">
        <ele>17</ele>
        <time>2019-07-20T17:20:11Z</time>
      </trkpt>
      <trkpt lat="51.21989491422" lon="4.46303401771">
        <ele>10</ele>
        <time>2019-07-20T17:20:47Z</time>
      </trkpt>
      <trkpt lat="51.220094487259" lon="4.462388359953">
        <ele>21.8</ele>
        <time>2019-07-20T17:21:30Z</time>
      </trkpt>
      <trkpt lat="51.220091218318" lon="4.462375954741">
        <ele>22</ele>
        <time>2019-07-20T17:21:31Z</time>
      </trkpt>
      <trkpt lat="51.220109323222" lon="4.46166692982">
        <ele>16.4</ele>
        <time>2019-07-20T17:22:21Z</time>
      </trkpt>
      <trkpt lat="51.220269752788" lon="4.461034515465">
        <ele>27.6</ele>
        <time>2019-07-20T17:23:22Z</time>
      </trkpt>
      <trkpt lat="51.220453064941" lon="4.460416769435">
        <ele>23</ele>
        <time>2019-07-20T17:23:58Z</time>
      </trkpt>
      <trkpt lat="51.220457591167" lon="4.459737164983">
        <ele>17</ele>
        <time>2019-07-20T17:24:32Z</time>
      </trkpt>
      <trkpt lat="51.220391709433" lon="4.459696848044">
        <ele>15.8</ele>
        <time>2019-07-20T17:24:37Z</time>
      </trkpt>
      <trkpt lat="51.220337729997" lon="4.459637923287">
        <ele>12.6</ele>
        <time>2019-07-20T17:24:43Z</time>
      </trkpt>
      <trkpt lat="51.220340998938" lon="4.459603389859">
        <ele>10</ele>
        <time>2019-07-20T17:24:46Z</time>
      </trkpt>
      <trkpt lat="51.220346614811" lon="4.459338689457">
        <ele>3.8</ele>
        <time>2019-07-20T17:25:07Z</time>
      </trkpt>
      <trkpt lat="51.220398917867" lon="4.459280519071">
        <ele>5.6</ele>
        <time>2019-07-20T17:25:25Z</time>
      </trkpt>
      <trkpt lat="51.22049505826" lon="4.45935101085">
        <ele>18.4</ele>
        <time>2019-07-20T17:25:53Z</time>
      </trkpt>
      <trkpt lat="51.220612321041" lon="4.459348831556">
        <ele>24.4</ele>
        <time>2019-07-20T17:26:14Z</time>
      </trkpt>
      <trkpt lat="51.220898730564" lon="4.459553517554">
        <ele>21.6</ele>
        <time>2019-07-20T17:26:56Z</time>
      </trkpt>
      <trkpt lat="51.221060082139" lon="4.459601210565">
        <ele>22.8</ele>
        <time>2019-07-20T17:27:16Z</time>
      </trkpt>
      <trkpt lat="51.221264600499" lon="4.459601881117">
        <ele>24.6</ele>
        <time>2019-07-20T17:27:37Z</time>
      </trkpt>
      <trkpt lat="51.221593841531" lon="4.459442038284">
        <ele>23.8</ele>
        <time>2019-07-20T17:28:10Z</time>
      </trkpt>
      <trkpt lat="51.221679336911" lon="4.459376743283">
        <ele>22.2</ele>
        <time>2019-07-20T17:28:21Z</time>
      </trkpt>
      <trkpt lat="51.222100695024" lon="4.459212122767">
        <ele>17.2</ele>
        <time>2019-07-20T17:28:59Z</time>
      </trkpt>
      <trkpt lat="51.222486513881" lon="4.458794033595">
        <ele>1.8</ele>
        <time>2019-07-20T17:29:44Z</time>
      </trkpt>
      <trkpt lat="51.222509396468" lon="4.458749860982">
        <ele>1.2</ele>
        <time>2019-07-20T17:29:48Z</time>
      </trkpt>
      <trkpt lat="51.222671921509" lon="4.458617929876">
        <ele>0</ele>
        <time>2019-07-20T17:30:07Z</time>
      </trkpt>
      <trkpt lat="51.223039719281" lon="4.458712896803">
        <ele>15.6</ele>
        <time>2019-07-20T17:31:16Z</time>
      </trkpt>
      <trkpt lat="51.223048185" lon="4.458759919262">
        <ele>12.6</ele>
        <time>2019-07-20T17:31:21Z</time>
      </trkpt>
      <trkpt lat="51.223052795045" lon="4.458901070458">
        <ele>9.2</ele>
        <time>2019-07-20T17:31:31Z</time>
      </trkpt>
      <trkpt lat="51.223055393434" lon="4.458901573372">
        <ele>8.8</ele>
        <time>2019-07-20T17:31:33Z</time>
      </trkpt>
      <trkpt lat="51.223065367895" lon="4.458954295523">
        <ele>8</ele>
        <time>2019-07-20T17:31:40Z</time>
      </trkpt>
      <trkpt lat="51.223106606843" lon="4.45904590969">
        <ele>10.6</ele>
        <time>2019-07-20T17:31:51Z</time>
      </trkpt>
      <trkpt lat="51.223522097626" lon="4.458953373514">
        <ele>6</ele>
        <time>2019-07-20T17:32:35Z</time>
      </trkpt>
      <trkpt lat="51.223719826647" lon="4.459007101493">
        <ele>11.2</ele>
        <time>2019-07-20T17:32:58Z</time>
      </trkpt>
      <trkpt lat="51.223833233754" lon="4.459015064298">
        <ele>13</ele>
        <time>2019-07-20T17:33:09Z</time>
      </trkpt>
      <trkpt lat="51.224281581585" lon="4.459050519735">
        <ele>28.4</ele>
        <time>2019-07-20T17:33:50Z</time>
      </trkpt>
      <trkpt lat="51.224459445503" lon="4.459010621891">
        <ele>26.6</ele>
        <time>2019-07-20T17:34:07Z</time>
      </trkpt>
      <trkpt lat="51.22490309947" lon="4.458890509264">
        <ele>19.8</ele>
        <time>2019-07-20T17:34:47Z</time>
      </trkpt>
      <trkpt lat="51.225354213328" lon="4.458806438807">
        <ele>14</ele>
        <time>2019-07-20T17:35:22Z</time>
      </trkpt>
      <trkpt lat="51.225410036782" lon="4.458787579532">
        <ele>14</ele>
        <time>2019-07-20T17:35:26Z</time>
      </trkpt>
      <trkpt lat="51.225549427779" lon="4.45865363677">
        <ele>10.2</ele>
        <time>2019-07-20T17:35:36Z</time>
      </trkpt>
      <trkpt lat="51.225571388357" lon="4.458639219902">
        <ele>9.8</ele>
        <time>2019-07-20T17:35:38Z</time>
      </trkpt>
      <trkpt lat="51.225994171393" lon="4.458445178917">
        <ele>12.4</ele>
        <time>2019-07-20T17:36:25Z</time>
      </trkpt>
      <trkpt lat="51.226425503967" lon="4.458215598676">
        <ele>15.2</ele>
        <time>2019-07-20T17:37:07Z</time>
      </trkpt>
      <trkpt lat="51.226820794371" lon="4.457840843927">
        <ele>5.4</ele>
        <time>2019-07-20T17:37:42Z</time>
      </trkpt>
      <trkpt lat="51.226882485155" lon="4.457839335185">
        <ele>5.6</ele>
        <time>2019-07-20T17:37:47Z</time>
      </trkpt>
      <trkpt lat="51.22717627075" lon="4.457735734901">
        <ele>10.4</ele>
        <time>2019-07-20T17:38:20Z</time>
      </trkpt>
      <trkpt lat="51.22734390875" lon="4.457655520118">
        <ele>11.8</ele>
        <time>2019-07-20T17:38:41Z</time>
      </trkpt>
      <trkpt lat="51.22776970927" lon="4.457384114196">
        <ele>10</ele>
        <time>2019-07-20T17:39:22Z</time>
      </trkpt>
      <trkpt lat="51.228183607492" lon="4.457102482356">
        <ele>6</ele>
        <time>2019-07-20T17:40:07Z</time>
      </trkpt>
      <trkpt lat="51.228387790576" lon="4.457006090506">
        <ele>5.8</ele>
        <time>2019-07-20T17:40:29Z</time>
      </trkpt>
      <trkpt lat="51.228841419004" lon="4.456978346417">
        <ele>14</ele>
        <time>2019-07-20T17:41:11Z</time>
      </trkpt>
      <trkpt lat="51.229287755179" lon="4.456824287095">
        <ele>14</ele>
        <time>2019-07-20T17:41:49Z</time>
      </trkpt>
      <trkpt lat="51.2297285593" lon="4.45669562493">
        <ele>16.4</ele>
        <time>2019-07-20T17:42:38Z</time>
      </trkpt>
      <trkpt lat="51.23016022715" lon="4.456492363855">
        <ele>16.4</ele>
        <time>2019-07-20T17:43:28Z</time>
      </trkpt>
      <trkpt lat="51.230603378203" lon="4.456372586504">
        <ele>14.6</ele>
        <time>2019-07-20T17:44:13Z</time>
      </trkpt>
      <trkpt lat="51.230667499738" lon="4.456403683353">
        <ele>15.8</ele>
        <time>2019-07-20T17:44:24Z</time>
      </trkpt>
      <trkpt lat="51.231101011606" lon="4.456237889371">
        <ele>0</ele>
        <time>2019-07-20T17:44:54Z</time>
      </trkpt>
      <trkpt lat="51.231213580523" lon="4.456441318084">
        <ele>0</ele>
        <time>2019-07-20T17:45:05Z</time>
      </trkpt>
      <trkpt lat="51.231282815017" lon="4.457087730212">
        <ele>0.6</ele>
        <time>2019-07-20T17:45:46Z</time>
      </trkpt>
      <trkpt lat="51.23113001298" lon="4.457555021137">
        <ele>3.6</ele>
        <time>2019-07-20T17:46:13Z</time>
      </trkpt>
      <trkpt lat="51.231084918358" lon="4.457601959777">
        <ele>1.8</ele>
        <time>2019-07-20T17:46:16Z</time>
      </trkpt>
      <trkpt lat="51.230618465623" lon="4.457741853688">
        <ele>0</ele>
        <time>2019-07-20T17:46:52Z</time>
      </trkpt>
      <trkpt lat="51.230543112342" lon="4.457777476763">
        <ele>0.2</ele>
        <time>2019-07-20T17:46:59Z</time>
      </trkpt>
      <trkpt lat="51.230195598768" lon="4.457746296095">
        <ele>5.8</ele>
        <time>2019-07-20T17:47:24Z</time>
      </trkpt>
      <trkpt lat="51.230099626013" lon="4.457814776218">
        <ele>6.8</ele>
        <time>2019-07-20T17:47:33Z</time>
      </trkpt>
      <trkpt lat="51.230010610235" lon="4.457845202515">
        <ele>7.6</ele>
        <time>2019-07-20T17:47:41Z</time>
      </trkpt>
      <trkpt lat="51.229893515092" lon="4.45789842758">
        <ele>3.4</ele>
        <time>2019-07-20T17:47:52Z</time>
      </trkpt>
      <trkpt lat="51.229688158542" lon="4.457937151958">
        <ele>0</ele>
        <time>2019-07-20T17:48:29Z</time>
      </trkpt>
    </trkseg>
  </trk>
</gpx>